Time;durP1;ratioP1;P1;durP2;ratioP2;P2;SDS_P1;SDS_P2;PMS_P1;PMS_P2;Temp;Humidity;BMP_temperature;BMP_pressure;BME280_temperature;BME280_humidity;BME280_pressure;Samples;Min_cycle;Max_cycle;Signal;HPM_P1;HPM_P2
2023/01/04 00:05:31;;;;;;;0.50;0.50;;;;;;;11.06;52.56;101817.47;18414844;32;20182;-59
2023/01/04 00:15:36;;;;;;;0.70;0.70;;;;;;;11.24;51.72;101825.66;18356445;32;20088;-58
2023/01/04 00:25:39;;;;;;;1.10;1.02;;;;;;;11.33;51.40;101837.13;18359581;32;20514;-58
2023/01/04 00:35:43;;;;;;;0.50;0.50;;;;;;;10.98;52.77;101835.62;18359002;32;20113;-58
2023/01/04 00:45:48;;;;;;;0.60;0.60;;;;;;;10.64;53.66;101841.06;18357996;32;20085;-58
2023/01/04 00:55:53;;;;;;;0.50;0.50;;;;;;;10.30;53.98;101842.91;18359208;31;20145;-58
2023/01/04 01:06:01;;;;;;;0.50;0.50;;;;;;;9.81;54.59;101856.59;18359090;31;20093;-58
2023/01/04 01:16:08;;;;;;;0.60;0.60;;;;;;;8.86;57.86;101861.06;18357576;32;20438;-58
2023/01/04 01:26:13;;;;;;;0.80;0.80;;;;;;;8.41;58.35;101871.00;18357551;32;20073;-58
2023/01/04 01:36:20;;;;;;;0.60;0.60;;;;;;;7.94;59.02;101883.41;18357050;32;20084;-58
2023/01/04 01:46:26;;;;;;;0.60;0.60;;;;;;;7.60;59.91;101871.06;18356953;32;20090;-58
2023/01/04 01:56:33;;;;;;;0.60;0.60;;;;;;;7.27;60.22;101871.66;18355811;32;20205;-58
2023/01/04 02:06:43;;;;;;;0.70;0.70;;;;;;;5.94;63.91;101867.53;18355969;32;20112;-58
2023/01/04 02:16:57;;;;;;;0.50;0.50;;;;;;;6.45;62.39;101887.72;18355622;31;20089;-58
2023/01/04 02:27:33;;;;;;;0.62;0.62;;;;;;;6.14;62.50;101868.34;18354974;32;20151;-58
2023/01/04 02:37:45;;;;;;;0.70;0.70;;;;;;;5.92;63.14;101880.44;18354129;32;20108;-58
2023/01/04 02:58:23;;;;;;;0.70;0.70;;;;;;;5.54;63.58;101871.94;18353048;32;20132;-58
2023/01/04 03:08:30;;;;;;;0.57;0.57;;;;;;;5.45;63.54;101861.19;18357712;32;20116;-58
2023/01/04 03:18:37;;;;;;;0.60;0.60;;;;;;;5.25;63.62;101856.91;18362635;31;20085;-58
2023/01/04 03:49:34;;;;;;;0.43;0.43;;;;;;;4.51;64.66;101871.75;18356389;31;167492;-58
2023/01/04 03:59:41;;;;;;;0.70;0.70;;;;;;;4.40;64.45;101884.19;18360795;32;20098;-58
2023/01/04 04:09:44;;;;;;;0.70;0.70;;;;;;;4.12;64.63;101875.97;18360658;32;20098;-57
2023/01/04 04:19:49;;;;;;;0.65;0.65;;;;;;;3.80;65.73;101874.44;18360194;32;20108;-58
2023/01/04 04:29:52;;;;;;;1.80;1.70;;;;;;;4.15;64.66;101886.50;18359691;32;20408;-58
2023/01/04 04:39:57;;;;;;;0.75;0.75;;;;;;;4.06;65.98;101888.63;18358947;32;20119;-58
2023/01/04 04:50:01;;;;;;;0.77;0.77;;;;;;;3.73;66.03;101883.56;18359114;32;20097;-58
2023/01/04 05:00:08;;;;;;;0.60;0.60;;;;;;;3.89;64.62;101895.56;18358057;32;20097;-57
2023/01/04 05:10:12;;;;;;;1.05;1.05;;;;;;;3.60;65.17;101889.81;18358264;32;20154;-57
2023/01/04 05:20:18;;;;;;;0.80;0.80;;;;;;;3.56;65.36;101896.53;18358035;32;20141;-58
2023/01/04 05:40:44;;;;;;;1.92;1.83;;;;;;;3.46;65.49;101902.00;18357027;32;20118;-58
2023/01/04 05:50:47;;;;;;;0.75;0.75;;;;;;;3.40;64.94;101907.75;18357991;32;20089;-58
2023/01/04 06:00:52;;;;;;;0.60;0.60;;;;;;;3.11;65.91;101906.25;18356015;32;20171;-58
2023/01/04 06:10:55;;;;;;;0.70;0.70;;;;;;;3.24;65.21;101924.13;18356010;32;20130;-58
2023/01/04 06:21:00;;;;;;;2.58;1.70;;;;;;;2.50;66.65;101919.34;18355142;32;20097;-58
2023/01/04 06:31:04;;;;;;;0.60;0.60;;;;;;;2.95;65.50;101922.63;18354863;32;20454;-57
2023/01/04 06:41:09;;;;;;;1.40;1.33;;;;;;;3.09;64.96;101946.56;18397001;32;20455;-57
2023/01/04 06:51:12;;;;;;;1.75;1.17;;;;;;;2.96;65.55;101945.03;18378661;32;20086;-57
2023/01/04 07:01:16;;;;;;;3.05;2.85;;;;;;;3.04;64.82;101948.91;18362964;32;20101;-58
2023/01/04 07:11:20;;;;;;;2.92;2.78;;;;;;;2.99;65.83;101952.91;18362559;32;20125;-58
2023/01/04 07:21:25;;;;;;;16.65;3.25;;;;;;;3.25;66.03;101956.00;18361043;32;20093;-58
2023/01/04 07:31:29;;;;;;;4.97;4.10;;;;;;;4.15;63.03;101945.94;18384166;32;20093;-59
2023/01/04 07:41:33;;;;;;;0.57;0.57;;;;;;;4.54;63.59;101945.19;18392588;32;20374;-59
2023/01/04 07:51:36;;;;;;;0.98;0.95;;;;;;;5.87;60.04;101953.62;18384125;32;20089;-58
2023/01/04 08:01:41;;;;;;;1.15;1.15;;;;;;;6.33;58.55;101941.69;18360162;32;20413;-58
2023/01/04 08:11:45;;;;;;;0.50;0.50;;;;;;;6.06;60.04;101957.91;18422652;32;20097;-58
2023/01/04 08:21:50;;;;;;;3.15;1.67;;;;;;;5.87;62.78;101951.03;18359919;32;20429;-58
2023/01/04 08:31:53;;;;;;;3.67;3.45;;;;;;;6.34;63.06;101941.78;18359541;32;20097;-58
2023/01/04 08:41:57;;;;;;;4.37;3.25;;;;;;;6.68;63.70;101947.41;18422687;32;20125;-59
2023/01/04 08:52:21;;;;;;;0.95;0.95;;;;;;;7.05;63.88;101959.19;18388629;31;20093;-58
2023/01/04 09:02:27;;;;;;;0.65;0.65;;;;;;;7.48;63.37;101959.88;18359675;32;20174;-58
2023/01/04 09:12:30;;;;;;;1.23;1.23;;;;;;;7.52;63.05;101959.97;18421090;32;20093;-58
2023/01/04 09:22:35;;;;;;;0.98;0.98;;;;;;;8.31;61.58;101941.81;18421073;32;20110;-58
2023/01/04 09:32:38;;;;;;;1.55;1.25;;;;;;;8.29;61.75;101948.69;18415837;32;20113;-58
2023/01/04 09:42:44;;;;;;;0.85;0.85;;;;;;;8.80;60.38;101934.69;18356372;32;20614;-58
2023/01/04 09:52:54;;;;;;;1.12;1.02;;;;;;;9.28;59.28;101896.94;18392874;31;20129;-58
2023/01/04 10:03:03;;;;;;;1.55;1.45;;;;;;;9.04;59.45;101896.28;18378972;32;20111;-58
2023/01/04 10:13:11;;;;;;;0.98;0.98;;;;;;;9.15;58.69;101880.13;18392210;32;20366;-59
2023/01/04 10:23:24;;;;;;;0.62;0.62;;;;;;;9.25;58.04;101869.94;18353869;32;20093;-58
2023/01/04 10:33:33;;;;;;;2.50;1.48;;;;;;;9.86;56.58;101856.69;18352760;32;20148;-58
2023/01/04 10:43:41;;;;;;;0.50;0.50;;;;;;;10.06;56.76;101841.53;18371643;32;20116;-58
2023/01/04 10:54:11;;;;;;;0.90;0.90;;;;;;;10.69;55.02;101823.75;18356836;31;20127;-58
2023/01/04 11:04:20;;;;;;;0.80;0.80;;;;;;;10.76;55.18;101808.22;18363943;32;20137;-59
2023/01/04 11:14:24;;;;;;;1.35;1.25;;;;;;;10.57;55.61;101802.63;18416375;32;20097;-58
2023/01/04 11:24:31;;;;;;;0.52;0.52;;;;;;;11.01;54.44;101788.66;18367985;32;20094;-60
2023/01/04 11:34:50;;;;;;;2.17;2.03;;;;;;;11.62;53.55;101773.97;18400708;31;20085;-58
2023/01/04 11:44:59;;;;;;;0.68;0.68;;;;;;;11.99;52.85;101758.81;18424023;32;20484;-58
2023/01/04 11:55:17;;;;;;;1.15;1.02;;;;;;;11.55;53.51;101748.59;18389446;32;20115;-59
2023/01/04 12:05:22;;;;;;;0.73;0.73;;;;;;;12.03;53.29;101728.37;18399193;31;20100;-58
2023/01/04 12:15:48;;;;;;;0.70;0.70;;;;;;;12.14;52.06;101721.53;18412782;32;20153;-58
2023/01/04 12:25:53;;;;;;;0.62;0.62;;;;;;;12.02;52.68;101716.13;18412926;32;20393;-58
2023/01/04 12:36:03;;;;;;;0.73;0.73;;;;;;;12.48;52.83;101702.72;18384561;31;20085;-58
2023/01/04 12:57:11;;;;;;;0.50;0.50;;;;;;;11.40;53.73;101652.47;18357649;31;20132;-58
2023/01/04 13:07:18;;;;;;;0.80;0.80;;;;;;;12.21;52.63;101660.53;18383591;32;20093;-59
2023/01/04 13:17:23;;;;;;;1.65;1.55;;;;;;;12.44;51.81;101644.19;18391083;32;20120;-58
2023/01/04 13:27:28;;;;;;;0.47;0.47;;;;;;;12.59;53.12;101643.47;18355240;31;20113;-59
2023/01/04 13:37:33;;;;;;;0.57;0.57;;;;;;;12.48;53.46;101622.41;18356286;32;20119;-59
2023/01/04 13:47:39;;;;;;;1.58;1.35;;;;;;;12.57;53.61;101613.75;18383029;32;20097;-58
2023/01/04 13:57:52;;;;;;;4.07;1.90;;;;;;;12.45;54.46;101603.19;18379844;32;20452;-58
2023/01/04 14:07:57;;;;;;;0.60;0.60;;;;;;;12.53;54.16;101595.38;18365188;32;20159;-59
2023/01/04 14:18:00;;;;;;;0.40;0.40;;;;;;;12.35;53.88;101596.97;18365354;32;20115;-58
2023/01/04 14:28:36;;;;;;;1.33;1.23;;;;;;;11.97;54.96;101568.63;18384034;31;20172;-58
2023/01/04 14:38:55;;;;;;;0.88;0.88;;;;;;;11.61;55.95;101563.00;18423658;32;20159;-59
2023/01/04 14:49:00;;;;;;;0.85;0.85;;;;;;;11.49;56.14;101561.09;18416646;32;20113;-59
2023/01/04 14:59:03;;;;;;;0.77;0.77;;;;;;;11.36;55.68;101553.09;18415431;32;20377;-59
2023/01/04 15:09:10;;;;;;;0.60;0.60;;;;;;;11.09;54.98;101548.37;18526199;31;20178;-58
2023/01/04 15:19:13;;;;;;;0.80;0.80;;;;;;;10.82;53.86;101552.34;18695312;31;20110;-58
2023/01/04 15:29:17;;;;;;;3.50;1.40;;;;;;;10.63;53.32;101549.44;18669138;31;20148;-58
2023/01/04 15:39:21;;;;;;;0.50;0.50;;;;;;;10.57;53.89;101533.69;18645071;31;20451;-59
2023/01/04 15:49:25;;;;;;;0.55;0.55;;;;;;;10.67;53.04;101529.47;18659434;31;20147;-58
2023/01/04 15:59:29;;;;;;;0.93;0.90;;;;;;;10.23;54.10;101528.75;18473468;31;20468;-58
2023/01/04 16:09:35;;;;;;;1.65;1.55;;;;;;;10.36;53.30;101515.88;18385279;32;20111;-58
2023/01/04 16:19:38;;;;;;;1.85;1.48;;;;;;;10.31;53.04;101507.97;18405320;32;20116;-58
2023/01/04 16:29:43;;;;;;;0.93;0.90;;;;;;;9.87;54.98;101495.06;18418735;32;20110;-59
2023/01/04 16:39:48;;;;;;;1.67;1.58;;;;;;;9.64;56.03;101488.56;18383344;32;20086;-60
2023/01/04 16:50:11;;;;;;;0.60;0.60;;;;;;;9.41;59.33;101472.47;18357710;32;20108;-60
2023/01/04 17:00:17;;;;;;;0.60;0.60;;;;;;;9.36;60.64;101474.97;18392339;32;20170;-60
2023/01/04 17:10:21;;;;;;;3.20;1.75;;;;;;;9.21;61.54;101459.03;18356312;32;20661;-60
2023/01/04 17:20:31;;;;;;;0.50;0.50;;;;;;;8.96;63.80;101445.47;18393488;32;20185;-60
2023/01/04 17:30:37;;;;;;;2.70;1.83;;;;;;;9.13;64.37;101428.47;18418460;32;20133;-60
2023/01/04 17:40:42;;;;;;;1.08;1.00;;;;;;;9.07;65.12;101430.09;18419982;32;20150;-60
2023/01/04 17:50:46;;;;;;;12.37;6.28;;;;;;;9.03;66.11;101413.50;18418141;32;20157;-60
2023/01/04 18:00:49;;;;;;;5.37;4.90;;;;;;;8.75;67.12;101405.12;18419198;32;20112;-60
2023/01/04 18:10:54;;;;;;;2.80;2.58;;;;;;;8.35;69.64;101399.00;18417871;32;20101;-60
2023/01/04 18:21:15;;;;;;;1.52;1.42;;;;;;;8.27;70.52;101401.44;18418428;32;20449;-60
2023/01/04 18:31:32;;;;;;;1.12;1.10;;;;;;;8.11;70.94;101406.25;18416824;32;20124;-60
2023/01/04 18:41:36;;;;;;;1.25;1.25;;;;;;;8.57;69.50;101384.78;18425219;32;20133;-60
2023/01/04 18:51:41;;;;;;;1.83;1.73;;;;;;;8.37;69.24;101355.69;18426547;32;20511;-60
2023/01/04 19:01:45;;;;;;;2.10;2.00;;;;;;;8.30;69.26;101357.28;18426126;31;20125;-60
2023/01/04 19:11:53;;;;;;;3.17;2.92;;;;;;;8.55;68.08;101324.03;18427131;32;20104;-60
2023/01/04 19:21:56;;;;;;;0.68;0.68;;;;;;;8.39;68.19;101308.03;18399122;31;20536;-60
2023/01/04 19:32:01;;;;;;;0.98;0.75;;;;;;;8.41;68.22;101284.66;18386721;32;20101;-60
2023/01/04 19:42:05;;;;;;;1.40;1.30;;;;;;;8.15;68.91;101279.78;18399998;32;20108;-60
2023/01/04 19:52:10;;;;;;;0.80;0.80;;;;;;;8.31;67.79;101254.97;18406588;32;20666;-61
2023/01/04 20:02:14;;;;;;;1.17;1.15;;;;;;;8.18;67.72;101270.31;18422099;32;20122;-60
2023/01/04 20:12:20;;;;;;;1.70;1.60;;;;;;;8.22;67.74;101246.97;18419727;32;20089;-60
2023/01/04 20:22:23;;;;;;;4.05;2.62;;;;;;;8.14;68.36;101247.69;18422127;32;20107;-60
2023/01/04 20:32:28;;;;;;;2.30;2.20;;;;;;;8.46;67.32;101237.06;18407691;32;20387;-60
2023/01/04 20:52:54;;;;;;;3.72;1.60;;;;;;;8.51;67.64;101182.56;18413858;31;20112;-60
2023/01/04 21:02:57;;;;;;;1.33;1.30;;;;;;;8.41;68.16;101186.66;18390313;32;20097;-60
2023/01/04 21:13:02;;;;;;;1.40;1.33;;;;;;;8.86;67.08;101155.41;18419295;32;20137;-60
2023/01/04 21:23:05;;;;;;;1.08;1.08;;;;;;;8.95;67.12;101118.22;18363254;32;20135;-60
2023/01/04 21:33:11;;;;;;;17.73;3.62;;;;;;;8.87;67.52;101092.94;18367607;32;20133;-60
2023/01/04 21:43:16;;;;;;;1.37;1.25;;;;;;;8.84;67.75;101076.41;18387486;32;20101;-60
2023/01/04 21:53:21;;;;;;;0.77;0.77;;;;;;;9.13;67.31;101060.31;18367956;32;20101;-60
2023/01/04 22:03:24;;;;;;;1.00;1.00;;;;;;;9.23;67.01;101049.19;18353136;32;20105;-60
2023/01/04 22:13:29;;;;;;;1.92;1.75;;;;;;;9.35;66.59;101038.06;18355382;32;20085;-60
2023/01/04 22:23:32;;;;;;;0.82;0.82;;;;;;;9.43;66.22;101031.19;18355495;32;20101;-60
2023/01/04 22:33:37;;;;;;;1.65;1.55;;;;;;;9.17;66.83;101023.03;18355919;32;20111;-60
2023/01/04 22:43:40;;;;;;;1.70;1.52;;;;;;;9.32;66.36;101024.13;18352141;32;20171;-60
2023/01/04 22:53:45;;;;;;;1.40;1.33;;;;;;;9.50;65.74;101010.44;18353806;31;20117;-60
2023/01/04 23:03:50;;;;;;;3.60;2.97;;;;;;;9.18;66.94;101006.56;18353531;32;20101;-60
2023/01/04 23:13:55;;;;;;;2.92;2.58;;;;;;;9.40;66.68;100999.03;18352808;32;20116;-60
2023/01/04 23:23:59;;;;;;;0.70;0.70;;;;;;;9.36;67.25;100990.28;18355535;32;20127;-60
2023/01/04 23:34:05;;;;;;;1.12;1.12;;;;;;;9.40;69.77;100972.97;18389095;31;20165;-60
2023/01/04 23:44:11;;;;;;;2.08;1.92;;;;;;;10.08;67.71;100978.88;18362133;32;20153;-60
2023/01/04 23:54:15;;;;;;;0.98;0.98;;;;;;;10.57;65.11;100959.28;18361468;31;20120;-60
